Hovedside
METAR-TAF:

METAR-TAF

Lufthavner :

Simón Bolívar internasjonale lufthavn

Caracas, Venezuela

breddegrad: 10-36N, lengdegrad: 066-59W, høyde over havet: 43 m

Gjeldene værobservasjon

Denne rapporten ble laget for 53 minutter siden, klokken 17:00 UTC
Vind 4 kt fra Nordvest
Temperatur 30°C
Luftfuktighet 70%
Trykk 1010 hPa
Sikt 10 km eller mer
Brutte skyer i en høyde av 1300 ft

METAR: SVMI 211700Z 31004KT 9999 BKN013 30/24 Q1010

Tid: 13:53 (17:53 UTC)

Varsel

Denne rapporten ble laget for 1 time og 53 minutter siden, klokken 16:00 UTC
Varsel gyldig fra 21. klokken 18 UTC til 22. klokken 18 UTC
Vind 6 kt fra Øst-nordøst
Sikt 10 km eller mer
Spredte skyer i en høyde av 1600 ft
Blir
fra 21. klokken 19 UTC til 21. klokken 23 UTC
Vind 8 kt fra Øst
Sikt: 9000 m
Få skyer i en høyde av 1600 ft
Spredte skyer i en høyde av 10000 ft
i nærheten, duskregn

TAF: SVMI 211600Z 2118/2218 07006KT 9999 SCT016 TX32/18Z TN24/10Z BECMG 2119/2123 09008KT 9000 VCDZ FEW016 SCT100

Værobservasjoner og værvarsel for over 4000 flyplasser (METAR- og TAF-rapporter).

Tilgjengelige stasjoner er representert av de røde og gule prikkene på kartet.

Hold musepekeren over prikken for å se navnet på stasjonen.

Klikk så for å se værobservasjoner og -varsler.

For å forandre kartet kan du klikke på den grønne knappen med svart kryss for å zoome inn, på den grønne knappen med strek for å zoome ut, eller på de grønne pilene for å se tilstøtende kart.


METAR-TAF: